Time;durP1;ratioP1;P1;durP2;ratioP2;P2;SDS_P1;SDS_P2;PMS_P1;PMS_P2;Temp;Humidity;BMP_temperature;BMP_pressure;BME280_temperature;BME280_humidity;BME280_pressure;Samples;Min_cycle;Max_cycle;Signal;HPM_P1;HPM_P2
2022/04/07 00:01:45;;;;;;;11.33;7.85;;;;;;;7.21;63.45;99626.93;1737454;81;21538;-52
2022/04/07 00:04:13;;;;;;;11.20;7.55;;;;;;;7.15;63.83;99633.12;1731251;80;21091;-52
2022/04/07 00:06:40;;;;;;;11.45;7.42;;;;;;;7.09;63.86;99629.17;1735921;80;21141;-52
2022/04/07 00:09:07;;;;;;;11.88;7.05;;;;;;;7.05;63.90;99628.58;1736072;80;21272;-52
2022/04/07 00:11:35;;;;;;;10.20;6.62;;;;;;;7.07;63.88;99623.23;1741071;82;21579;-53
2022/04/07 00:14:04;;;;;;;10.88;7.30;;;;;;;7.10;63.89;99621.70;1735783;80;21043;-53
2022/04/07 00:16:32;;;;;;;11.83;7.05;;;;;;;7.12;63.94;99618.48;1698488;83;21888;-53
2022/04/07 00:19:01;;;;;;;11.95;7.85;;;;;;;7.12;64.05;99612.42;1701884;82;21064;-53
2022/04/07 00:21:35;;;;;;;11.03;7.40;;;;;;;7.11;63.97;99611.59;1699799;83;21100;-53
2022/04/07 00:23:57;;;;;;;12.40;7.55;;;;;;;7.07;63.78;99608.36;1697502;83;21079;-53
2022/04/07 00:26:24;;;;;;;10.38;6.78;;;;;;;7.03;63.75;99615.28;1705098;82;21058;-53
2022/04/07 00:28:52;;;;;;;10.53;6.72;;;;;;;6.98;63.81;99618.73;1697056;83;21668;-53
2022/04/07 00:31:19;;;;;;;11.10;6.92;;;;;;;6.96;64.04;99604.91;1701878;83;21087;-53
2022/04/07 00:33:47;;;;;;;10.10;6.58;;;;;;;6.94;64.06;99615.49;1701422;82;21887;-53
2022/04/07 00:36:13;;;;;;;11.38;6.62;;;;;;;6.95;64.10;99620.27;1737586;81;21059;-53
2022/04/07 00:38:40;;;;;;;12.50;7.45;;;;;;;6.91;64.12;99617.06;1737089;81;21122;-53
2022/04/07 00:41:07;;;;;;;10.10;6.62;;;;;;;6.87;64.26;99619.05;1701081;83;21592;-53
2022/04/07 00:43:36;;;;;;;11.83;6.70;;;;;;;6.90;64.25;99614.56;1734792;80;21047;-53
2022/04/07 00:46:04;;;;;;;11.33;7.15;;;;;;;6.97;63.96;99619.67;1737869;80;21130;-53
2022/04/07 00:48:35;;;;;;;9.60;6.95;;;;;;;6.99;63.87;99611.22;1739999;81;21098;-53
2022/04/07 00:51:00;;;;;;;11.78;6.35;;;;;;;7.02;63.79;99613.12;1697856;82;21192;-52
2022/04/07 00:53:26;;;;;;;12.93;7.60;;;;;;;7.02;63.85;99611.81;1706618;83;21054;-53
2022/04/07 00:55:59;;;;;;;13.28;8.08;;;;;;;7.05;63.69;99606.83;1698419;83;21142;-52
2022/04/07 00:58:23;;;;;;;11.75;7.25;;;;;;;7.04;63.49;99608.62;1698348;82;21384;-52
2022/04/07 01:00:50;;;;;;;14.15;8.35;;;;;;;7.02;63.37;99607.06;1703377;82;21099;-53
2022/04/07 01:03:17;;;;;;;11.20;7.42;;;;;;;6.98;63.37;99600.42;1695900;83;21078;-52
2022/04/07 01:05:45;;;;;;;11.48;7.60;;;;;;;6.97;63.41;99593.03;1699913;82;21059;-52
2022/04/07 01:08:12;;;;;;;11.15;7.55;;;;;;;6.97;63.23;99593.52;1674009;83;21027;-52
2022/04/07 01:10:39;;;;;;;11.57;7.62;;;;;;;6.90;63.18;99591.03;1702075;83;21172;-52
2022/04/07 01:13:06;;;;;;;11.28;7.22;;;;;;;6.83;63.18;99591.48;1704174;82;21035;-52
2022/04/07 01:15:34;;;;;;;11.55;6.95;;;;;;;6.75;63.33;99587.32;1744749;81;21100;-52
2022/04/07 01:18:01;;;;;;;11.40;6.50;;;;;;;6.72;63.77;99591.95;1705154;83;21066;-52
2022/04/07 01:20:29;;;;;;;13.05;6.22;;;;;;;6.70;63.77;99586.36;1731267;81;21118;-52
2022/04/07 01:22:56;;;;;;;11.90;6.70;;;;;;;6.71;63.80;99585.91;1746150;81;21144;-52
2022/04/07 01:25:26;;;;;;;9.93;6.03;;;;;;;6.69;63.78;99586.02;1743695;80;21502;-53
2022/04/07 01:27:55;;;;;;;10.32;6.65;;;;;;;6.65;63.84;99586.36;1745681;81;21138;-53
2022/04/07 01:30:22;;;;;;;10.40;5.70;;;;;;;6.62;63.87;99597.05;1719240;82;21019;-53
2022/04/07 01:33:00;;;;;;;10.48;6.72;;;;;;;6.58;63.85;99597.77;1746333;80;21010;-53
2022/04/07 01:35:25;;;;;;;11.57;7.62;;;;;;;6.51;63.83;99593.95;1738675;81;21155;-54
2022/04/07 01:37:52;;;;;;;10.90;5.95;;;;;;;6.45;64.04;99593.10;1742241;81;20999;-53
2022/04/07 01:40:22;;;;;;;10.60;6.65;;;;;;;6.39;64.35;99594.86;1741706;80;21522;-53
2022/04/07 01:42:52;;;;;;;11.57;6.80;;;;;;;6.35;64.41;99598.19;1745687;80;21579;-53
2022/04/07 01:45:19;;;;;;;11.63;6.28;;;;;;;6.30;64.48;99600.31;1742769;81;21070;-53
2022/04/07 01:47:47;;;;;;;11.78;6.42;;;;;;;6.26;64.57;99597.58;1742080;80;21068;-53
2022/04/07 01:50:14;;;;;;;10.10;6.30;;;;;;;6.22;64.81;99605.27;1742805;81;21070;-53
2022/04/07 01:52:42;;;;;;;9.68;5.72;;;;;;;6.20;64.75;99590.19;1745599;80;21130;-53
2022/04/07 01:55:09;;;;;;;11.88;6.28;;;;;;;6.25;64.70;99578.92;1739844;80;21479;-53
2022/04/07 01:57:36;;;;;;;10.45;6.28;;;;;;;6.30;64.61;99586.80;1745114;81;21004;-53
2022/04/07 02:00:04;;;;;;;9.53;5.92;;;;;;;6.41;64.49;99592.50;1730204;82;21808;-53
2022/04/07 02:02:34;;;;;;;11.28;6.90;;;;;;;6.51;64.24;99587.42;1706989;83;21011;-53
2022/04/07 02:05:08;;;;;;;9.60;6.35;;;;;;;6.60;63.92;99584.58;1744591;80;21206;-55
2022/04/07 02:07:33;;;;;;;10.93;6.37;;;;;;;6.61;63.64;99581.85;1744042;80;21078;-53
2022/04/07 02:10:00;;;;;;;9.60;6.30;;;;;;;6.61;63.57;99582.33;1737086;80;21015;-53
2022/04/07 02:12:29;;;;;;;12.30;6.47;;;;;;;6.58;63.59;99580.77;1701134;84;21153;-53
2022/04/07 02:15:02;;;;;;;11.05;6.28;;;;;;;6.55;63.44;99580.17;1738832;80;21118;-53
2022/04/07 02:17:30;;;;;;;11.28;6.40;;;;;;;6.49;63.47;99575.77;1739654;81;21092;-53
2022/04/07 02:19:58;;;;;;;11.45;6.30;;;;;;;6.45;63.52;99578.25;1737098;80;21096;-53
2022/04/07 02:22:28;;;;;;;11.48;6.47;;;;;;;6.41;63.57;99579.44;1737816;80;21044;-53
2022/04/07 02:24:56;;;;;;;12.73;6.33;;;;;;;6.36;63.68;99579.44;1700398;82;21137;-53
2022/04/07 02:27:23;;;;;;;10.13;6.12;;;;;;;6.36;63.76;99576.34;1698442;84;21050;-53
2022/04/07 02:29:49;;;;;;;11.85;6.03;;;;;;;6.42;63.70;99577.20;1703690;83;21124;-53
2022/04/07 02:32:16;;;;;;;13.00;7.40;;;;;;;6.48;63.64;99574.09;1692430;83;21107;-53
2022/04/07 02:34:45;;;;;;;10.45;6.83;;;;;;;6.59;63.63;99575.91;1669623;83;21083;-53
2022/04/07 02:37:11;;;;;;;10.82;7.00;;;;;;;6.66;63.40;99578.89;1735782;81;21141;-53
2022/04/07 02:39:38;;;;;;;10.95;6.47;;;;;;;6.72;63.26;99578.40;1733879;81;21536;-53
2022/04/07 02:42:06;;;;;;;10.68;6.90;;;;;;;6.77;62.96;99579.36;1732049;82;21580;-53
2022/04/07 02:44:32;;;;;;;12.53;6.58;;;;;;;6.79;62.70;99569.16;1739578;81;21110;-53
2022/04/07 02:46:59;;;;;;;11.90;6.97;;;;;;;6.80;62.47;99566.05;1740853;81;21131;-53
2022/04/07 02:49:26;;;;;;;13.50;7.33;;;;;;;6.79;62.37;99564.38;1737869;81;21142;-53
2022/04/07 02:51:52;;;;;;;12.55;7.00;;;;;;;6.80;62.22;99572.11;1701242;83;21451;-53
2022/04/07 02:54:20;;;;;;;11.88;6.92;;;;;;;6.76;61.95;99574.62;1694156;82;21019;-54
2022/04/07 02:56:47;;;;;;;11.28;6.10;;;;;;;6.68;61.95;99586.95;1717862;81;21010;-53
2022/04/07 02:59:14;;;;;;;9.83;6.58;;;;;;;6.64;62.13;99575.09;1727062;81;21042;-53
2022/04/07 03:01:40;;;;;;;11.12;6.62;;;;;;;6.59;62.17;99577.67;1675160;83;21882;-53
2022/04/07 03:04:08;;;;;;;11.75;5.97;;;;;;;6.51;62.14;99579.09;1700666;82;21959;-53
2022/04/07 03:06:37;;;;;;;11.00;5.83;;;;;;;6.46;62.16;99576.48;1721633;81;21047;-53
2022/04/07 03:09:03;;;;;;;11.48;5.75;;;;;;;6.47;62.21;99582.91;1742263;81;21039;-53
2022/04/07 03:11:32;;;;;;;9.40;5.45;;;;;;;6.50;62.29;99576.11;1741641;80;21154;-54
2022/04/07 03:13:58;;;;;;;11.15;6.22;;;;;;;6.56;62.32;99581.37;1725244;81;21478;-53
2022/04/07 03:16:25;;;;;;;10.38;6.30;;;;;;;6.59;62.39;99573.75;1698784;82;21031;-53
2022/04/07 03:18:53;;;;;;;10.00;6.03;;;;;;;6.59;62.15;99586.82;1738001;81;21051;-53
2022/04/07 03:21:20;;;;;;;9.40;6.08;;;;;;;6.53;62.14;99580.77;1737000;80;21062;-54
2022/04/07 03:23:48;;;;;;;10.23;5.47;;;;;;;6.46;62.24;99573.39;1735298;81;22414;-54
2022/04/07 03:26:15;;;;;;;11.75;7.10;;;;;;;6.40;62.25;99575.15;1699500;82;21208;-54
2022/04/07 03:28:42;;;;;;;11.70;6.55;;;;;;;6.33;62.18;99572.16;1703774;83;21114;-54
2022/04/07 03:31:09;;;;;;;11.22;6.80;;;;;;;6.26;62.32;99574.06;1731946;81;21055;-54
2022/04/07 03:33:37;;;;;;;11.65;5.78;;;;;;;6.20;62.51;99575.83;1736941;81;21071;-53
2022/04/07 03:36:04;;;;;;;11.55;7.20;;;;;;;6.12;62.53;99564.66;1734901;81;21043;-54
2022/04/07 03:38:31;;;;;;;13.48;7.55;;;;;;;6.06;62.66;99575.07;1698425;82;21258;-53
2022/04/07 03:40:57;;;;;;;12.80;6.45;;;;;;;5.99;62.85;99569.13;1696313;82;21452;-53
2022/04/07 03:43:24;;;;;;;11.43;6.15;;;;;;;5.97;63.06;99571.84;1702505;82;21091;-53
2022/04/07 03:45:51;;;;;;;10.55;6.08;;;;;;;6.01;63.05;99573.27;1698630;83;21483;-54
2022/04/07 03:48:17;;;;;;;9.15;5.67;;;;;;;6.05;63.11;99571.27;1706552;83;21094;-54
2022/04/07 03:50:44;;;;;;;10.30;6.35;;;;;;;6.06;63.17;99570.33;1700497;82;21100;-53
2022/04/07 03:53:12;;;;;;;11.10;5.58;;;;;;;6.07;63.27;99575.44;1703307;83;21529;-53
2022/04/07 03:55:40;;;;;;;13.32;6.37;;;;;;;6.05;63.28;99572.12;1701753;82;21108;-53
2022/04/07 03:58:08;;;;;;;11.22;7.03;;;;;;;6.02;63.42;99578.02;1702674;83;21588;-53
2022/04/07 04:00:35;;;;;;;11.70;6.90;;;;;;;6.05;63.51;99577.34;1700620;83;21047;-53
2022/04/07 04:03:02;;;;;;;13.38;6.83;;;;;;;6.07;63.57;99578.05;1698498;83;21160;-52
2022/04/07 04:05:30;;;;;;;12.88;7.08;;;;;;;6.11;63.71;99569.51;1687639;83;21042;-53
2022/04/07 04:07:56;;;;;;;12.37;6.92;;;;;;;6.17;63.71;99562.98;1702507;82;21150;-53
2022/04/07 04:10:24;;;;;;;13.35;6.42;;;;;;;6.22;63.82;99568.70;1701575;83;21643;-53
2022/04/07 04:12:52;;;;;;;10.63;6.33;;;;;;;6.24;63.91;99572.05;1687887;83;21051;-53
2022/04/07 04:15:19;;;;;;;12.03;6.37;;;;;;;6.29;63.81;99580.38;1689340;82;21170;-53
2022/04/07 04:17:48;;;;;;;9.90;4.92;;;;;;;6.39;63.61;99574.81;1704337;83;21317;-53
2022/04/07 04:20:14;;;;;;;10.08;5.78;;;;;;;6.55;63.27;99573.16;1703113;83;20963;-53
2022/04/07 04:22:42;;;;;;;11.80;6.05;;;;;;;6.70;63.05;99564.62;1699079;82;20929;-53
2022/04/07 04:25:09;;;;;;;10.60;5.65;;;;;;;6.85;62.83;99567.35;1702003;82;21027;-53
2022/04/07 04:27:36;;;;;;;9.30;5.67;;;;;;;7.00;62.58;99573.18;1692634;83;21162;-53
2022/04/07 04:30:03;;;;;;;8.70;5.40;;;;;;;7.11;62.26;99571.05;1693340;82;21012;-53
2022/04/07 04:32:31;;;;;;;10.05;6.10;;;;;;;7.22;61.97;99578.04;1690573;83;21093;-53
2022/04/07 04:34:58;;;;;;;10.23;6.22;;;;;;;7.29;61.65;99575.77;1693444;83;21146;-52
2022/04/07 04:37:26;;;;;;;9.68;6.15;;;;;;;7.34;61.42;99577.55;1698807;83;21071;-53
2022/04/07 04:39:53;;;;;;;9.85;5.80;;;;;;;7.37;61.20;99578.12;1683918;83;21179;-52
2022/04/07 04:42:21;;;;;;;9.70;5.70;;;;;;;7.38;61.21;99568.03;1694506;83;21047;-52
2022/04/07 04:44:48;;;;;;;8.38;5.55;;;;;;;7.40;61.11;99570.52;1693900;82;21568;-53
2022/04/07 04:47:19;;;;;;;9.93;6.00;;;;;;;7.40;61.05;99572.66;1695982;83;21054;-53
2022/04/07 04:49:47;;;;;;;13.45;5.72;;;;;;;7.43;61.00;99578.11;1645697;84;21066;-53
2022/04/07 04:52:15;;;;;;;10.15;6.37;;;;;;;7.43;61.10;99576.34;1671084;84;21099;-53
2022/04/07 04:54:42;;;;;;;12.68;5.87;;;;;;;7.47;61.13;99576.10;1699539;82;21059;-53
2022/04/07 04:57:09;;;;;;;13.03;5.78;;;;;;;7.53;61.08;99580.82;1710768;82;21085;-52
2022/04/07 04:59:35;;;;;;;10.03;5.50;;;;;;;7.66;60.94;99589.36;1748171;81;21049;-52
2022/04/07 05:02:04;;;;;;;9.45;5.58;;;;;;;7.78;60.79;99586.22;1703855;82;21086;-54
2022/04/07 05:04:32;;;;;;;11.15;6.25;;;;;;;7.92;60.64;99594.30;1729796;80;21191;-55
2022/04/07 05:06:58;;;;;;;10.20;6.25;;;;;;;8.02;60.58;99589.96;1741115;81;21488;-54
2022/04/07 05:09:25;;;;;;;11.35;6.55;;;;;;;8.13;60.31;99594.30;1721756;81;21052;-53
2022/04/07 05:11:52;;;;;;;11.40;6.45;;;;;;;8.21;59.89;99588.44;1692543;82;21607;-53
2022/04/07 05:14:18;;;;;;;11.22;6.10;;;;;;;8.28;59.73;99589.59;1726697;81;21090;-52
2022/04/07 05:16:45;;;;;;;10.18;6.40;;;;;;;8.32;59.36;99577.88;1693326;82;21110;-53
2022/04/07 05:19:13;;;;;;;9.93;6.58;;;;;;;8.37;59.51;99573.08;1730134;82;21609;-52
2022/04/07 05:21:42;;;;;;;10.75;6.60;;;;;;;8.41;59.32;99568.44;1739362;80;21079;-53
2022/04/07 05:24:09;;;;;;;11.18;6.30;;;;;;;8.46;59.20;99569.73;1726759;81;20966;-53
2022/04/07 05:26:36;;;;;;;11.55;6.35;;;;;;;8.52;59.09;99574.47;1718624;80;21569;-53
2022/04/07 05:29:04;;;;;;;11.73;6.53;;;;;;;8.57;59.18;99566.68;1731622;81;21151;-52
2022/04/07 05:31:31;;;;;;;12.80;7.00;;;;;;;8.62;59.06;99571.05;1732471;81;21031;-52
2022/04/07 05:33:57;;;;;;;8.88;5.70;;;;;;;8.67;59.03;99569.69;1740931;80;20984;-52
2022/04/07 05:36:26;;;;;;;10.80;6.90;;;;;;;8.74;58.96;99568.69;1735197;80;21036;-53
2022/04/07 05:38:52;;;;;;;11.08;6.25;;;;;;;8.81;58.87;99573.78;1736500;82;21051;-53
2022/04/07 05:41:19;;;;;;;12.90;6.75;;;;;;;8.93;58.62;99565.34;1739308;80;21201;-52
2022/04/07 05:43:46;;;;;;;9.80;6.35;;;;;;;9.09;58.31;99572.23;1740149;82;21014;-53
2022/04/07 05:46:12;;;;;;;10.13;7.25;;;;;;;9.24;57.85;99569.22;1734745;80;21106;-53
2022/04/07 05:48:39;;;;;;;9.33;5.75;;;;;;;9.39;57.83;99569.67;1738457;81;21062;-52
2022/04/07 05:51:07;;;;;;;10.80;6.12;;;;;;;9.51;57.41;99567.76;1727402;81;21489;-52
2022/04/07 05:53:34;;;;;;;9.23;6.42;;;;;;;9.60;57.17;99569.55;1704758;83;21169;-52
2022/04/07 05:56:01;;;;;;;9.93;5.83;;;;;;;9.68;57.02;99563.14;1731913;80;21095;-53
2022/04/07 05:58:29;;;;;;;9.28;5.87;;;;;;;9.75;56.52;99559.48;1700818;82;21054;-54
2022/04/07 06:00:56;;;;;;;12.07;6.30;;;;;;;9.80;56.45;99566.46;1728579;81;21011;-53
2022/04/07 06:03:23;;;;;;;12.65;6.37;;;;;;;9.86;56.42;99568.05;1735536;80;21575;-53
2022/04/07 06:05:52;;;;;;;10.53;5.92;;;;;;;9.93;56.30;99561.77;1737994;81;21112;-53
2022/04/07 06:08:20;;;;;;;10.35;6.37;;;;;;;9.99;56.33;99564.34;1737975;81;21071;-54
2022/04/07 06:10:46;;;;;;;9.33;6.55;;;;;;;10.04;56.25;99562.94;1735384;80;21521;-53
2022/04/07 06:13:14;;;;;;;12.50;6.72;;;;;;;10.14;56.15;99562.12;1740673;81;21075;-53
2022/04/07 06:15:42;;;;;;;11.18;6.08;;;;;;;10.19;56.23;99558.09;1730736;81;21027;-53
2022/04/07 06:18:09;;;;;;;8.73;5.58;;;;;;;10.28;55.90;99551.64;1738237;80;21087;-53
2022/04/07 06:20:36;;;;;;;9.80;6.30;;;;;;;10.37;55.68;99554.29;1736104;80;21037;-53
2022/04/07 06:25:21;;;;;;;10.48;7.00;;;;;;;10.55;55.50;99555.67;1774788;79;23090;-53
2022/04/07 06:27:48;;;;;;;10.35;5.75;;;;;;;10.58;55.29;99560.66;1737840;81;21056;-53
2022/04/07 06:30:17;;;;;;;10.55;6.25;;;;;;;10.66;55.07;99555.16;1742317;80;21134;-53
2022/04/07 06:32:45;;;;;;;9.63;6.00;;;;;;;10.74;54.91;99548.69;1680670;83;21037;-52
2022/04/07 06:35:14;;;;;;;9.33;6.17;;;;;;;10.83;54.89;99547.02;1690141;82;21095;-53
2022/04/07 06:37:54;;;;;;;10.23;6.65;;;;;;;10.92;54.58;99554.03;1690362;84;21137;-52
2022/04/07 06:40:24;;;;;;;9.45;5.62;;;;;;;11.01;54.57;99551.00;1691365;82;21074;-52
2022/04/07 06:42:53;;;;;;;9.08;5.37;;;;;;;11.10;54.17;99557.55;1710070;82;21138;-53
2022/04/07 06:45:20;;;;;;;8.83;5.17;;;;;;;11.20;53.98;99550.91;1714949;83;21075;-53
2022/04/07 06:47:47;;;;;;;11.18;5.97;;;;;;;11.29;54.27;99536.84;1710184;82;21145;-53
2022/04/07 06:50:16;;;;;;;12.45;5.85;;;;;;;11.38;54.11;99538.25;1699322;82;21121;-53
2022/04/07 06:52:44;;;;;;;9.05;5.40;;;;;;;11.49;54.17;99541.50;1691285;83;21078;-52
2022/04/07 06:55:13;;;;;;;9.63;5.55;;;;;;;11.62;53.80;99544.28;1675834;84;21015;-52
2022/04/07 06:58:00;;;;;;;8.20;4.87;;;;;;;11.72;53.67;99543.71;1679005;84;21487;-54
2022/04/07 07:00:32;;;;;;;10.20;5.33;;;;;;;11.82;53.42;99537.88;1678871;84;21078;-53
2022/04/07 07:03:03;;;;;;;8.18;5.28;;;;;;;11.91;52.99;99548.02;1685256;83;21543;-53
2022/04/07 07:05:33;;;;;;;7.90;4.97;;;;;;;12.00;52.72;99545.80;1676361;84;21121;-53
2022/04/07 07:08:20;;;;;;;9.28;5.17;;;;;;;12.11;52.55;99542.58;1689854;84;21107;-54
2022/04/07 07:10:50;;;;;;;9.08;5.50;;;;;;;12.20;52.68;99537.19;1679346;84;21059;-53
2022/04/07 07:13:18;;;;;;;8.28;5.10;;;;;;;12.32;52.73;99533.80;1674122;84;21137;-53
2022/04/07 07:15:47;;;;;;;10.00;5.75;;;;;;;12.42;52.17;99531.07;1674342;83;21573;-53
2022/04/07 07:18:14;;;;;;;9.60;5.60;;;;;;;12.51;51.78;99518.75;1697762;84;21089;-53
2022/04/07 07:20:41;;;;;;;8.15;4.80;;;;;;;12.60;51.66;99513.86;1693610;84;21144;-53
2022/04/07 07:23:08;;;;;;;7.60;4.83;;;;;;;12.69;51.47;99513.41;1673498;84;21767;-53
2022/04/07 07:25:36;;;;;;;9.88;4.87;;;;;;;12.79;51.48;99510.15;1685514;84;21078;-52
2022/04/07 07:28:05;;;;;;;8.35;4.60;;;;;;;12.90;51.32;99518.30;1681018;84;21094;-52
2022/04/07 07:30:32;;;;;;;7.25;4.30;;;;;;;13.00;50.47;99506.61;1691362;83;21034;-54
2022/04/07 07:32:59;;;;;;;10.45;4.85;;;;;;;13.09;50.31;99502.17;1701189;82;21988;-53
2022/04/07 07:35:27;;;;;;;8.15;3.90;;;;;;;13.22;49.70;99507.51;1698494;82;21067;-53
2022/04/07 07:37:56;;;;;;;9.45;4.37;;;;;;;13.31;49.03;99499.92;1676801;84;21142;-52
2022/04/07 07:40:27;;;;;;;9.18;4.83;;;;;;;13.39;49.32;99505.25;1695360;84;21102;-53
2022/04/07 07:42:56;;;;;;;7.08;3.83;;;;;;;13.50;48.96;99505.42;1674915;83;21157;-53
2022/04/07 07:45:24;;;;;;;8.30;4.35;;;;;;;13.59;49.09;99497.84;1701558;84;21221;-54
2022/04/07 07:47:53;;;;;;;8.10;4.30;;;;;;;13.68;48.99;99495.52;1665501;84;21099;-54
2022/04/07 07:50:21;;;;;;;9.50;5.03;;;;;;;13.78;49.14;99493.23;1678821;84;21063;-53
2022/04/07 07:52:47;;;;;;;8.18;4.67;;;;;;;13.89;48.98;99499.01;1695766;83;21578;-52
2022/04/07 07:55:14;;;;;;;8.18;4.60;;;;;;;14.00;48.54;99492.55;1696435;82;21086;-53
2022/04/07 07:57:42;;;;;;;8.75;4.78;;;;;;;14.11;48.91;99486.10;1671710;84;21202;-53
2022/04/07 08:00:10;;;;;;;8.50;4.70;;;;;;;14.22;48.28;99489.73;1671102;85;21704;-53
2022/04/07 08:02:38;;;;;;;8.68;4.03;;;;;;;14.32;48.35;99486.88;1670831;84;21066;-53
2022/04/07 08:05:07;;;;;;;7.42;4.00;;;;;;;14.44;47.23;99482.04;1692959;83;21031;-52
2022/04/07 08:07:42;;;;;;;8.48;4.25;;;;;;;14.53;46.78;99477.06;1660570;84;21143;-52
2022/04/07 08:10:09;;;;;;;9.33;4.90;;;;;;;14.63;47.13;99476.91;1670486;84;21150;-52
2022/04/07 08:12:38;;;;;;;8.78;4.60;;;;;;;14.72;47.45;99472.40;1680316;83;21033;-52
2022/04/07 08:15:06;;;;;;;9.80;4.58;;;;;;;14.83;46.77;99461.43;1700463;83;21059;-52
2022/04/07 08:17:33;;;;;;;9.60;5.33;;;;;;;14.93;46.75;99462.52;1696373;83;21072;-52
2022/04/07 08:20:00;;;;;;;7.85;4.78;;;;;;;15.00;46.51;99455.55;1698514;84;21106;-53
2022/04/07 08:22:27;;;;;;;8.30;5.25;;;;;;;15.07;45.73;99453.84;1697346;82;21148;-53
2022/04/07 08:24:56;;;;;;;8.10;5.03;;;;;;;15.16;46.04;99455.94;1691548;84;21084;-53
2022/04/07 08:27:26;;;;;;;8.25;4.70;;;;;;;15.22;45.41;99451.27;1726648;82;21114;-53
2022/04/07 08:29:52;;;;;;;8.45;4.87;;;;;;;15.30;45.16;99451.22;1728061;81;21059;-52
2022/04/07 08:32:20;;;;;;;9.75;5.17;;;;;;;15.39;44.91;99445.34;1722878;81;21119;-53
2022/04/07 08:34:46;;;;;;;7.92;4.78;;;;;;;15.49;45.32;99438.49;1727788;82;21244;-53
2022/04/07 08:37:13;;;;;;;7.28;3.80;;;;;;;15.57;44.39;99439.75;1722711;82;21569;-54
2022/04/07 08:39:42;;;;;;;6.95;4.28;;;;;;;15.64;44.47;99435.89;1727199;81;21013;-53
2022/04/07 08:42:10;;;;;;;5.85;3.60;;;;;;;15.73;44.31;99426.84;1723387;80;21122;-52
2022/04/07 08:44:36;;;;;;;8.10;3.47;;;;;;;15.84;44.04;99428.28;1723826;82;21162;-52
2022/04/07 08:47:04;;;;;;;7.08;4.30;;;;;;;15.92;43.95;99422.88;1724923;81;21200;-52
2022/04/07 08:49:31;;;;;;;7.70;4.05;;;;;;;16.01;43.30;99415.16;1723073;82;21071;-52
2022/04/07 08:51:59;;;;;;;8.50;4.28;;;;;;;16.12;42.67;99419.19;1729995;81;21055;-53
2022/04/07 08:54:26;;;;;;;6.55;3.67;;;;;;;16.22;42.00;99409.62;1728612;82;21063;-53
2022/04/07 08:56:53;;;;;;;11.00;7.00;;;;;;;16.33;42.42;99401.22;1723933;80;21577;-53
2022/04/07 08:59:20;;;;;;;4.78;2.75;;;;;;;16.43;42.45;99404.41;1722722;80;21138;-52
2022/04/07 09:01:48;;;;;;;6.50;3.52;;;;;;;16.52;41.15;99401.14;1718701;81;21519;-52
2022/04/07 09:04:14;;;;;;;6.35;3.55;;;;;;;16.61;40.59;99396.05;1726937;82;21098;-54
2022/04/07 09:06:42;;;;;;;8.00;3.77;;;;;;;16.69;40.88;99395.10;1722752;81;21099;-53
2022/04/07 09:09:16;;;;;;;6.37;3.42;;;;;;;16.78;41.36;99390.02;1722794;82;21054;-53
2022/04/07 09:11:43;;;;;;;8.73;3.95;;;;;;;16.90;41.05;99389.05;1725883;82;22432;-53
2022/04/07 09:14:11;;;;;;;7.85;4.22;;;;;;;17.01;40.56;99379.74;1725059;82;21224;-55
2022/04/07 09:16:39;;;;;;;8.45;5.15;;;;;;;17.11;40.69;99379.44;1727491;81;21188;-54
2022/04/07 09:19:08;;;;;;;8.98;4.70;;;;;;;17.18;40.91;99375.84;1716497;82;21055;-53
2022/04/07 09:21:36;;;;;;;7.22;3.98;;;;;;;17.30;41.07;99368.66;1724675;80;21059;-54
2022/04/07 09:24:08;;;;;;;6.35;3.67;;;;;;;17.37;40.50;99361.58;1712524;83;21100;-54
2022/04/07 09:26:39;;;;;;;8.60;4.95;;;;;;;17.46;39.76;99361.74;1728803;81;21039;-53
2022/04/07 09:29:11;;;;;;;9.08;5.17;;;;;;;17.52;40.20;99360.17;1715177;82;22324;-53
2022/04/07 09:31:42;;;;;;;7.85;5.10;;;;;;;17.60;40.15;99349.36;1724392;81;21141;-53
2022/04/07 09:34:09;;;;;;;8.18;4.10;;;;;;;17.64;40.18;99351.96;1730579;82;21000;-54
2022/04/07 09:36:36;;;;;;;10.00;5.12;;;;;;;17.67;40.11;99333.45;1677364;82;21150;-54
2022/04/07 09:39:04;;;;;;;8.33;4.65;;;;;;;17.76;40.20;99342.93;1729184;82;21047;-53
2022/04/07 09:41:31;;;;;;;9.43;5.10;;;;;;;17.83;39.69;99336.62;1729499;82;21054;-53
2022/04/07 09:44:00;;;;;;;9.03;5.22;;;;;;;17.93;40.42;99332.31;1731897;82;21106;-52
2022/04/07 09:46:38;;;;;;;8.83;5.20;;;;;;;18.03;39.19;99332.47;1730325;81;21083;-53
2022/04/07 09:49:10;;;;;;;9.45;5.92;;;;;;;18.08;39.36;99321.53;1726533;82;21722;-53
2022/04/07 09:51:46;;;;;;;8.98;5.20;;;;;;;18.16;39.41;99329.36;1709137;81;21047;-55
2022/04/07 09:54:16;;;;;;;9.38;5.08;;;;;;;18.20;38.73;99320.46;1721174;82;21012;-53
2022/04/07 09:56:44;;;;;;;10.05;6.12;;;;;;;18.25;39.08;99322.53;1729091;80;21065;-54
2022/04/07 09:59:12;;;;;;;9.23;5.08;;;;;;;18.30;38.82;99318.77;1720958;82;21030;-53
2022/04/07 10:01:39;;;;;;;7.78;4.87;;;;;;;18.35;38.25;99322.46;1727687;81;21137;-53
2022/04/07 10:04:06;;;;;;;9.45;4.78;;;;;;;18.43;38.33;99318.00;1731282;82;21531;-54
2022/04/07 10:06:33;;;;;;;7.62;4.60;;;;;;;18.46;37.27;99302.92;1724298;82;21055;-53
2022/04/07 10:09:07;;;;;;;9.05;4.85;;;;;;;18.48;36.54;99303.05;1734549;81;21531;-53
2022/04/07 10:11:33;;;;;;;8.20;4.60;;;;;;;18.49;36.81;99302.53;1728926;82;21062;-53
2022/04/07 10:14:01;;;;;;;8.73;4.85;;;;;;;18.52;37.92;99300.80;1707836;80;21797;-54
2022/04/07 10:16:28;;;;;;;8.98;5.17;;;;;;;18.57;37.10;99283.70;1713339;82;21090;-53
2022/04/07 10:19:01;;;;;;;8.40;4.72;;;;;;;18.61;36.31;99294.28;1724008;81;21063;-54
2022/04/07 10:22:03;;;;;;;9.35;5.47;;;;;;;18.63;36.26;99284.23;1715420;81;21147;-53
2022/04/07 10:24:47;;;;;;;6.90;4.70;;;;;;;18.66;35.74;99282.50;1721266;81;21588;-54
2022/04/07 10:27:17;;;;;;;7.78;4.72;;;;;;;18.70;36.33;99274.41;1725117;81;21122;-53
2022/04/07 10:30:04;;;;;;;7.72;4.95;;;;;;;18.74;36.61;99259.67;1711872;82;21035;-54
2022/04/07 10:32:46;;;;;;;8.55;4.78;;;;;;;18.82;36.08;99265.81;1722067;80;21720;-53
2022/04/07 10:35:35;;;;;;;7.53;4.30;;;;;;;18.87;35.17;99253.53;1721998;82;21463;-56
2022/04/07 10:38:10;;;;;;;8.65;4.60;;;;;;;18.97;33.99;99257.66;1723148;81;21113;-54
2022/04/07 10:40:49;;;;;;;7.17;3.80;;;;;;;19.02;34.13;99250.67;1713525;81;23267;-54
2022/04/07 10:43:25;;;;;;;6.33;4.03;;;;;;;19.06;33.39;99239.08;1719401;81;21051;-54
2022/04/07 10:46:08;;;;;;;7.12;3.90;;;;;;;19.08;33.79;99233.02;1662250;84;21030;-54
2022/04/07 10:48:51;;;;;;;6.50;3.77;;;;;;;19.12;33.73;99231.08;1670142;85;21131;-53
2022/04/07 10:51:18;;;;;;;6.00;3.52;;;;;;;19.21;33.97;99222.86;1653774;85;21688;-53
2022/04/07 10:53:57;;;;;;;8.40;3.83;;;;;;;19.29;33.17;99210.65;1665165;83;21204;-52
2022/04/07 10:56:35;;;;;;;6.95;4.17;;;;;;;19.36;33.05;99216.78;1674497;83;21036;-54
2022/04/07 10:59:21;;;;;;;6.75;4.05;;;;;;;19.43;32.70;99212.77;1673675;83;21139;-53
2022/04/07 11:01:53;;;;;;;6.35;3.90;;;;;;;19.47;32.72;99216.67;1666591;84;21077;-55
2022/04/07 11:04:31;;;;;;;7.55;3.55;;;;;;;19.52;32.66;99216.02;1672330;83;21115;-54
2022/04/07 11:07:13;;;;;;;7.03;4.30;;;;;;;19.56;32.86;99202.58;1667259;84;22913;-53
2022/04/07 11:10:03;;;;;;;9.25;3.95;;;;;;;19.63;32.73;99201.51;1718601;81;21086;-53
2022/04/07 11:12:35;;;;;;;6.87;3.77;;;;;;;19.68;32.35;99215.56;1721678;80;21024;-53
2022/04/07 11:15:09;;;;;;;9.18;3.40;;;;;;;19.70;32.11;99202.02;1722395;82;21051;-53
2022/04/07 11:17:37;;;;;;;5.92;3.45;;;;;;;19.76;32.13;99194.53;1726814;82;21557;-53
2022/04/07 11:20:22;;;;;;;5.22;3.17;;;;;;;19.83;31.94;99201.46;1707442;84;21534;-53
2022/04/07 11:23:01;;;;;;;7.30;4.10;;;;;;;19.91;32.05;99193.74;1722716;82;21106;-51
2022/04/07 11:25:38;;;;;;;8.35;3.25;;;;;;;19.97;32.39;99192.90;1717761;80;21049;-53
2022/04/07 11:28:22;;;;;;;6.70;3.45;;;;;;;20.06;32.02;99204.67;1722684;80;21083;-53
2022/04/07 11:30:52;;;;;;;6.50;3.62;;;;;;;20.16;31.74;99193.00;1684458;83;21684;-53
2022/04/07 11:33:27;;;;;;;5.65;3.30;;;;;;;20.22;31.14;99192.13;1724688;80;21207;-53
2022/04/07 11:36:07;;;;;;;6.97;4.10;;;;;;;20.29;31.04;99186.74;1724314;81;21051;-54
2022/04/07 11:38:46;;;;;;;5.97;3.25;;;;;;;20.36;30.58;99182.20;1723220;80;21063;-53
2022/04/07 11:41:14;;;;;;;6.60;3.83;;;;;;;20.42;30.95;99173.30;1723634;82;21644;-54
2022/04/07 11:43:44;;;;;;;6.10;3.35;;;;;;;20.50;30.15;99180.24;1723413;82;21654;-54
2022/04/07 11:46:12;;;;;;;8.53;4.33;;;;;;;20.57;31.05;99165.77;1723521;82;21105;-52